Braine-l'Alleud, Belgium
Current Conditions -  °F | °C
As of 6:20 AM on Tuesday 27 Jan 2015 (Local Time) from EBCI Reporting Station
Broken Clouds Broken Clouds  
Wind Chill: 31°   Ceiling: 3600
Heat Index: 36°   Visibility: 6mi
Dew Point: 34°   Wind: 6mph
Humidity: 93%   Direction: 280°W
Pressure: 30.27"   Gusts: NA
Location:  50.68°N, 4.37°E
Report Text: EBCI 270520Z 28005KT 250V310 9000 FEW005 SCT015 BKN036 02/01 Q1025 NOSIG
Loading
Personal Weather Stations






























Interactive Weather Map New forecast layout! Learn more

10-Day Weather Forecast

Advertisements
Track Severe Weather on mobile